E16

San Martin Airport

San Martin, California, USA
METAR KE16 261255Z AUTO 00000KT 10SM OVC011 10/08 A3005 RMK AO2
Observed Flight Rules
Apr-26 @ 12:55 UTC (26 minutes ago) Marginal Visual Flight Rules
Visibility Clouds
10 miles
  • Overcast at 1,100' AGL
Temperatures Readings
Current 10°C / 50°F
Dewpoint 8°C / 46°F
Humidity 88%
Altimeter 30.05" Hg
Pressure 1018 hPa
Elevation 86
METAR KE16 261255Z AUTO 00000KT 10SM OVC011 10/08 A3005 RMK AO2
Observed Flight Rules
Apr-26 @ 12:55 UTC
(26 minutes ago)
MVFR
Clouds
  • Overcast at 1,100' AGL
Temperature Dewpoint
10°C / 50°F 8°C / 46°F
Humidity Altimeter Pressure
88% 30.05" Hg 1018 hPa